Time;durP1;ratioP1;P1;durP2;ratioP2;P2;SDS_P1;SDS_P2;PMS_P1;PMS_P2;Temp;Humidity;BMP_temperature;BMP_pressure;BME280_temperature;BME280_humidity;BME280_pressure;Samples;Min_cycle;Max_cycle;Signal;HPM_P1;HPM_P2
2022/04/19 00:00:55;;;;;;;8.00;5.40;;;;;;;15.97;38.59;101407.13;5143121;27;20051;-63
2022/04/19 00:03:24;;;;;;;8.98;6.00;;;;;;;15.94;38.62;101413.03;5156002;27;20059;-63
2022/04/19 00:05:52;;;;;;;6.80;5.22;;;;;;;15.92;38.50;101405.13;5154103;27;20043;-63
2022/04/19 00:08:20;;;;;;;8.63;5.22;;;;;;;15.91;38.68;101408.09;5141574;27;20077;-63
2022/04/19 00:10:48;;;;;;;6.70;5.15;;;;;;;15.87;38.69;101396.91;5144988;27;20043;-63
2022/04/19 00:13:17;;;;;;;6.82;5.20;;;;;;;15.84;38.89;101394.69;5142671;27;20340;-63
2022/04/19 00:15:45;;;;;;;8.80;5.05;;;;;;;15.83;38.89;101400.34;5136506;27;20138;-63
2022/04/19 00:18:15;;;;;;;8.57;5.25;;;;;;;15.80;38.79;101400.84;5134440;27;20092;-63
2022/04/19 00:20:44;;;;;;;9.80;5.93;;;;;;;15.76;38.82;101397.78;5141005;27;20130;-63
2022/04/19 00:23:13;;;;;;;8.68;5.10;;;;;;;15.77;38.87;101398.63;5143022;27;20063;-63
2022/04/19 00:25:41;;;;;;;8.65;5.40;;;;;;;15.75;38.78;101396.16;5145100;27;20085;-62
2022/04/19 00:28:10;;;;;;;7.40;4.78;;;;;;;15.73;38.85;101395.56;5145160;27;20047;-62
2022/04/19 00:30:38;;;;;;;8.57;5.38;;;;;;;15.71;38.82;101392.28;5142729;27;20058;-62
2022/04/19 00:33:07;;;;;;;8.63;5.53;;;;;;;15.70;38.89;101392.53;5147092;27;20044;-62
2022/04/19 00:35:35;;;;;;;9.32;5.10;;;;;;;15.69;38.99;101385.47;5140959;27;20050;-62
2022/04/19 00:38:04;;;;;;;8.18;5.38;;;;;;;15.67;39.10;101385.69;5142889;27;20085;-62
2022/04/19 00:40:32;;;;;;;9.13;5.70;;;;;;;15.65;38.94;101387.00;5133159;27;20069;-62
2022/04/19 00:43:01;;;;;;;8.93;5.18;;;;;;;15.59;39.36;101375.28;5142990;27;20084;-62
2022/04/19 00:45:31;;;;;;;7.32;5.20;;;;;;;15.62;39.23;101377.47;5156426;27;20053;-62
2022/04/19 00:47:59;;;;;;;7.82;4.68;;;;;;;15.60;39.24;101382.34;5150354;27;20047;-62
2022/04/19 00:50:27;;;;;;;6.80;4.63;;;;;;;15.57;39.14;101380.94;5147910;27;20085;-62
2022/04/19 00:52:55;;;;;;;7.75;4.85;;;;;;;15.56;39.27;101383.84;5136968;27;20552;-63
2022/04/19 00:55:24;;;;;;;10.05;5.63;;;;;;;15.54;39.17;101380.56;5150066;27;20057;-62
2022/04/19 00:57:52;;;;;;;8.75;5.18;;;;;;;15.53;39.46;101377.03;5142565;27;20056;-63
2022/04/19 01:00:21;;;;;;;15.18;5.78;;;;;;;15.50;39.06;101379.41;5131035;27;20046;-62
2022/04/19 01:02:48;;;;;;;9.15;5.53;;;;;;;15.49;39.54;101380.47;5136712;27;20036;-62
2022/04/19 01:05:19;;;;;;;7.32;5.20;;;;;;;15.47;39.57;101388.84;5140070;27;20115;-62
2022/04/19 01:07:47;;;;;;;8.95;5.80;;;;;;;15.44;39.29;101385.78;5133911;27;20063;-64
2022/04/19 01:10:15;;;;;;;9.05;5.57;;;;;;;15.43;39.63;101384.13;5143819;27;20046;-63
2022/04/19 01:15:29;;;;;;;8.95;5.43;;;;;;;15.39;39.31;101391.09;5154394;27;20047;-62
2022/04/19 01:17:59;;;;;;;9.73;5.70;;;;;;;15.35;39.64;101385.34;5149364;27;20070;-62
2022/04/19 01:20:27;;;;;;;8.48;5.45;;;;;;;15.33;39.70;101381.22;5142946;27;20075;-62
2022/04/19 01:22:56;;;;;;;9.05;5.78;;;;;;;15.30;39.96;101380.66;5150297;27;20058;-62
2022/04/19 01:25:24;;;;;;;12.15;5.18;;;;;;;15.28;39.55;101379.25;5146393;27;20058;-62
2022/04/19 01:27:52;;;;;;;8.68;5.75;;;;;;;15.25;39.91;101379.72;5139529;28;20452;-63
2022/04/19 01:30:20;;;;;;;7.07;4.95;;;;;;;15.23;39.64;101371.00;5147799;27;20078;-62
2022/04/19 01:32:48;;;;;;;11.32;4.85;;;;;;;15.20;39.77;101376.91;5143092;27;20047;-62
2022/04/19 01:35:17;;;;;;;9.82;6.20;;;;;;;15.19;40.04;101369.84;5151017;27;20043;-63
2022/04/19 01:37:46;;;;;;;9.15;6.03;;;;;;;15.17;39.89;101370.09;5148654;27;20067;-63
2022/04/19 01:40:19;;;;;;;9.90;5.90;;;;;;;15.15;39.95;101376.81;5133437;28;20043;-63
2022/04/19 01:42:49;;;;;;;9.82;5.60;;;;;;;15.13;39.68;101370.81;5140986;28;20058;-63
2022/04/19 01:45:18;;;;;;;10.23;6.28;;;;;;;15.09;40.17;101365.03;5150515;27;20067;-63
2022/04/19 01:47:47;;;;;;;8.10;5.32;;;;;;;15.07;40.18;101361.75;5141504;27;20054;-63
2022/04/19 01:50:16;;;;;;;8.60;6.28;;;;;;;15.06;40.19;101360.09;5143353;27;20063;-63
2022/04/19 01:52:46;;;;;;;9.80;5.90;;;;;;;15.04;39.97;101366.81;5140585;27;20075;-63
2022/04/19 01:55:17;;;;;;;8.90;5.07;;;;;;;15.01;40.03;101368.13;5135198;28;20054;-63
2022/04/19 01:57:47;;;;;;;7.50;5.60;;;;;;;15.00;40.18;101362.94;5149007;27;20073;-63
2022/04/19 02:00:16;;;;;;;8.40;5.80;;;;;;;14.97;40.23;101356.94;5145980;27;20100;-63
2022/04/19 02:02:45;;;;;;;7.93;5.13;;;;;;;14.96;40.33;101357.19;5143371;27;20500;-63
2022/04/19 02:05:14;;;;;;;7.22;4.90;;;;;;;14.94;40.19;101359.31;5137204;27;20050;-63
2022/04/19 02:07:43;;;;;;;8.75;5.65;;;;;;;14.90;40.16;101361.66;5130588;27;20083;-63
2022/04/19 02:10:12;;;;;;;9.02;5.63;;;;;;;14.92;40.09;101364.13;5140798;27;20085;-63
2022/04/19 02:12:41;;;;;;;8.07;5.60;;;;;;;14.91;40.20;101363.31;5142616;28;20081;-63
2022/04/19 02:15:10;;;;;;;8.05;5.05;;;;;;;14.88;40.35;101357.56;5137049;27;20051;-63
2022/04/19 02:17:44;;;;;;;7.85;5.40;;;;;;;14.87;40.33;101359.44;5147861;27;20096;-63
2022/04/19 02:20:14;;;;;;;8.40;5.55;;;;;;;14.86;40.15;101356.97;5145330;27;20555;-63
2022/04/19 02:22:42;;;;;;;9.23;6.20;;;;;;;14.83;40.18;101352.84;5152761;27;20078;-61
2022/04/19 02:25:11;;;;;;;10.10;5.57;;;;;;;14.80;40.39;101345.22;5153805;27;20086;-62
2022/04/19 02:27:42;;;;;;;11.60;5.93;;;;;;;14.81;40.36;101346.03;5154631;27;20051;-63
2022/04/19 02:30:14;;;;;;;8.82;5.68;;;;;;;14.79;40.19;101354.38;5150623;27;20074;-62
2022/04/19 02:32:44;;;;;;;8.45;5.82;;;;;;;14.78;40.40;101347.31;5144528;27;20043;-63
2022/04/19 02:35:14;;;;;;;8.25;5.32;;;;;;;14.75;40.49;101344.28;5157194;27;20059;-63
2022/04/19 02:37:48;;;;;;;8.05;5.70;;;;;;;14.74;40.35;101340.75;5153900;27;20133;-62
2022/04/19 02:40:18;;;;;;;7.57;5.18;;;;;;;14.73;40.30;101347.22;5151678;27;20047;-63
2022/04/19 02:42:48;;;;;;;7.85;5.82;;;;;;;14.71;40.57;101343.09;5145914;27;20459;-63
2022/04/19 02:45:16;;;;;;;9.85;5.13;;;;;;;14.70;40.32;101338.75;5158207;27;20066;-63
2022/04/19 02:47:44;;;;;;;8.45;5.82;;;;;;;14.66;40.57;101341.09;5138771;27;20443;-63
2022/04/19 02:50:12;;;;;;;8.18;5.85;;;;;;;14.64;40.52;101337.81;5135880;27;20099;-63
2022/04/19 02:52:39;;;;;;;8.73;5.25;;;;;;;14.63;40.42;101338.88;5146521;27;20130;-62
2022/04/19 02:55:08;;;;;;;9.85;6.00;;;;;;;14.60;40.46;101337.47;5139677;27;20094;-63
2022/04/19 02:57:35;;;;;;;7.28;5.40;;;;;;;14.59;40.18;101332.28;5143275;27;20091;-63
2022/04/19 03:00:06;;;;;;;7.68;5.40;;;;;;;14.56;40.26;101335.47;5144991;27;20054;-63
2022/04/19 03:02:34;;;;;;;8.13;5.07;;;;;;;14.54;40.75;101335.72;5151670;27;20047;-63
2022/04/19 03:05:02;;;;;;;10.27;5.80;;;;;;;14.52;40.50;101334.28;5132099;27;20055;-63
2022/04/19 03:07:29;;;;;;;7.32;4.97;;;;;;;14.50;40.63;101333.72;5146199;27;20070;-63
2022/04/19 03:09:57;;;;;;;7.45;5.43;;;;;;;14.44;40.77;101323.84;5143799;27;20086;-63
2022/04/19 03:12:25;;;;;;;8.45;5.88;;;;;;;14.46;40.19;101332.53;5134545;27;20051;-63
2022/04/19 03:14:52;;;;;;;8.10;5.30;;;;;;;14.44;40.51;101334.66;5142731;27;20114;-62
2022/04/19 03:17:21;;;;;;;8.35;5.25;;;;;;;14.42;40.84;101328.66;5142680;27;20078;-63
2022/04/19 03:19:49;;;;;;;10.07;6.10;;;;;;;14.40;40.57;101330.75;5140289;27;20073;-63
2022/04/19 03:22:17;;;;;;;10.23;5.20;;;;;;;14.39;40.42;101331.78;5151765;27;20063;-62
2022/04/19 03:27:42;;;;;;;9.02;5.60;;;;;;;14.33;40.87;101326.28;5140983;27;20051;-63
2022/04/19 03:30:12;;;;;;;9.05;5.75;;;;;;;14.32;40.68;101323.81;5143498;27;20242;-63
2022/04/19 03:32:42;;;;;;;8.77;5.70;;;;;;;14.31;40.61;101332.97;5139772;27;20047;-63
2022/04/19 03:35:10;;;;;;;7.47;5.53;;;;;;;14.29;40.69;101329.69;5144020;27;20047;-63
2022/04/19 03:37:39;;;;;;;8.15;5.47;;;;;;;14.27;40.65;101326.38;5143585;27;20103;-63
2022/04/19 03:40:08;;;;;;;9.90;5.93;;;;;;;14.26;40.83;101330.16;5148742;27;20065;-63
2022/04/19 03:42:35;;;;;;;9.52;5.35;;;;;;;14.25;40.64;101342.00;5142648;27;20051;-63
2022/04/19 03:45:04;;;;;;;7.93;5.53;;;;;;;14.23;40.95;101331.44;5140302;27;20047;-62
2022/04/19 03:47:34;;;;;;;9.90;6.07;;;;;;;14.22;40.77;101329.78;5135587;27;20051;-64
2022/04/19 03:50:04;;;;;;;10.25;6.00;;;;;;;14.20;40.96;101329.19;5142681;27;20066;-64
2022/04/19 03:52:32;;;;;;;8.68;5.35;;;;;;;14.20;40.98;101328.38;5145597;27;20043;-62
2022/04/19 03:54:59;;;;;;;7.63;5.22;;;;;;;14.18;40.55;101338.59;5145383;27;20078;-63
2022/04/19 03:57:27;;;;;;;8.52;5.45;;;;;;;14.17;40.94;101336.97;5141156;27;20071;-63
2022/04/19 03:59:55;;;;;;;12.15;5.95;;;;;;;14.14;40.49;101343.66;5141161;27;20043;-63
2022/04/19 04:02:23;;;;;;;7.95;5.53;;;;;;;14.13;40.89;101338.47;5155082;27;20086;-63
2022/04/19 04:04:50;;;;;;;8.75;5.47;;;;;;;14.11;40.58;101338.72;5144941;27;20054;-63
2022/04/19 04:07:19;;;;;;;7.85;5.35;;;;;;;14.11;40.71;101343.28;5148259;27;20082;-62
2022/04/19 04:09:49;;;;;;;11.45;5.30;;;;;;;14.09;40.89;101343.53;5144742;27;20280;-62
2022/04/19 04:12:17;;;;;;;7.90;5.55;;;;;;;14.07;41.01;101345.63;5146248;27;20043;-62
2022/04/19 04:14:45;;;;;;;8.98;5.75;;;;;;;14.01;40.82;101333.06;5143150;27;20522;-62
2022/04/19 04:17:12;;;;;;;8.88;5.80;;;;;;;14.04;40.94;101340.69;5135547;27;20067;-62
2022/04/19 04:19:40;;;;;;;8.80;5.75;;;;;;;14.01;41.06;101338.47;5142125;27;20090;-63
2022/04/19 04:22:08;;;;;;;10.05;5.90;;;;;;;14.00;40.94;101339.50;5149608;27;20077;-63
2022/04/19 04:24:37;;;;;;;7.93;5.50;;;;;;;13.97;41.08;101343.50;5137207;27;20091;-63
2022/04/19 04:27:05;;;;;;;7.97;5.57;;;;;;;13.95;40.83;101340.22;5121801;27;20055;-63
2022/04/19 04:29:32;;;;;;;8.23;5.35;;;;;;;13.95;40.99;101351.03;5144408;27;20069;-63
2022/04/19 04:32:00;;;;;;;10.35;5.95;;;;;;;13.93;41.17;101345.03;5144372;27;20087;-63
2022/04/19 04:34:28;;;;;;;10.50;5.82;;;;;;;13.90;40.86;101353.59;5139393;27;20139;-63
2022/04/19 04:36:55;;;;;;;10.10;6.05;;;;;;;13.89;41.16;101349.25;5140796;27;20077;-63
2022/04/19 04:39:23;;;;;;;10.63;5.93;;;;;;;13.87;41.01;101355.94;5150192;27;20043;-63
2022/04/19 04:41:52;;;;;;;9.13;5.40;;;;;;;13.73;40.93;101327.50;5139606;27;20043;-61
2022/04/19 04:44:20;;;;;;;8.15;6.13;;;;;;;13.83;41.32;101349.38;5147476;27;20053;-62
2022/04/19 04:49:40;;;;;;;11.15;5.88;;;;;;;13.79;41.13;101350.91;5143946;27;20071;-63
2022/04/19 04:52:09;;;;;;;9.57;6.47;;;;;;;13.76;40.88;101352.19;5146773;27;20046;-63
2022/04/19 04:54:38;;;;;;;8.85;6.53;;;;;;;13.75;41.38;101352.41;5138163;27;20070;-63
2022/04/19 04:57:07;;;;;;;8.52;6.05;;;;;;;13.74;41.09;101345.34;5143020;27;20051;-63
2022/04/19 04:59:36;;;;;;;8.45;6.13;;;;;;;13.72;40.91;101351.00;5145177;27;20066;-63
2022/04/19 05:02:04;;;;;;;10.13;6.13;;;;;;;13.71;41.42;101352.03;5142846;27;20070;-63
2022/04/19 05:04:33;;;;;;;10.60;5.70;;;;;;;13.69;41.42;101354.16;5143083;27;20096;-63
2022/04/19 05:07:01;;;;;;;10.02;5.45;;;;;;;13.67;41.44;101351.69;5145226;27;20054;-63
2022/04/19 05:09:29;;;;;;;9.18;5.90;;;;;;;13.67;41.33;101354.38;5158693;27;20515;-63
2022/04/19 05:11:57;;;;;;;10.52;5.78;;;;;;;13.66;41.08;101360.84;5155280;27;20174;-63
2022/04/19 05:14:26;;;;;;;7.60;5.63;;;;;;;13.64;41.18;101356.72;5138405;27;20165;-63
2022/04/19 05:16:54;;;;;;;7.60;5.75;;;;;;;13.64;41.25;101351.31;5146997;27;20054;-63
2022/04/19 05:19:22;;;;;;;8.45;5.57;;;;;;;13.62;41.12;101367.75;5129670;27;20089;-63
2022/04/19 05:21:49;;;;;;;8.80;5.43;;;;;;;13.60;41.14;101364.47;5131630;28;20044;-63
2022/04/19 05:24:17;;;;;;;10.07;6.88;;;;;;;13.61;41.19;101373.38;5144302;27;20071;-64
2022/04/19 05:26:45;;;;;;;8.60;6.53;;;;;;;13.59;41.33;101370.09;5144828;27;20078;-64
2022/04/19 05:29:12;;;;;;;10.85;5.38;;;;;;;13.58;41.25;101366.56;5144315;28;20081;-62
2022/04/19 05:31:42;;;;;;;11.75;6.00;;;;;;;13.56;40.84;101370.53;5141432;28;20466;-64
2022/04/19 05:34:10;;;;;;;9.10;6.38;;;;;;;13.56;40.93;101371.38;5141537;27;20074;-61
2022/04/19 05:36:38;;;;;;;12.40;6.38;;;;;;;13.57;41.09;101372.19;5140185;28;20050;-61
2022/04/19 05:39:06;;;;;;;11.50;6.13;;;;;;;13.55;40.87;101369.72;5144135;28;20070;-62
2022/04/19 05:41:35;;;;;;;8.98;6.03;;;;;;;13.55;40.63;101372.41;5135708;27;20433;-64
2022/04/19 05:44:03;;;;;;;14.45;6.47;;;;;;;13.55;40.72;101367.03;5136986;27;20059;-63
2022/04/19 05:46:31;;;;;;;7.82;5.57;;;;;;;13.53;40.74;101369.13;4779019;27;9999952;-61
2022/04/19 05:49:04;;;;;;;9.07;6.30;;;;;;;13.56;41.05;101367.84;5137218;27;20074;-61
2022/04/19 05:51:32;;;;;;;11.57;6.72;;;;;;;13.54;40.83;101368.06;5142313;27;20078;-61
2022/04/19 05:54:00;;;;;;;9.52;6.35;;;;;;;13.55;41.03;101374.28;5148583;27;20185;-61
2022/04/19 05:56:28;;;;;;;10.18;6.60;;;;;;;13.54;40.93;101373.47;5148754;27;20110;-61
2022/04/19 05:58:55;;;;;;;9.40;6.25;;;;;;;13.52;40.81;101372.88;5149649;27;20545;-61
2022/04/19 06:01:23;;;;;;;11.68;6.07;;;;;;;13.55;40.89;101375.13;5146368;27;20118;-62
2022/04/19 06:06:39;;;;;;;11.20;6.35;;;;;;;13.53;41.04;101377.22;5144337;27;20654;-62
2022/04/19 06:09:07;;;;;;;10.73;7.00;;;;;;;13.56;40.97;101375.94;5143822;27;20467;-61
2022/04/19 06:11:35;;;;;;;11.68;6.68;;;;;;;13.59;40.59;101386.28;4777093;27;10000202;-62
2022/04/19 06:14:03;;;;;;;9.95;6.65;;;;;;;13.61;40.90;101384.19;5152468;27;20047;-62
2022/04/19 06:16:31;;;;;;;9.15;6.63;;;;;;;13.62;40.91;101383.13;5153217;27;20050;-62
2022/04/19 06:18:59;;;;;;;9.80;6.70;;;;;;;13.65;40.64;101383.50;5146920;27;20076;-62
2022/04/19 06:21:27;;;;;;;12.65;8.10;;;;;;;13.67;40.70;101388.66;5137576;27;20058;-62
2022/04/19 06:23:56;;;;;;;11.52;7.25;;;;;;;13.71;40.68;101394.44;5147357;27;20074;-61
2022/04/19 06:26:23;;;;;;;10.90;7.30;;;;;;;13.71;40.70;101389.88;5146100;27;20082;-62
2022/04/19 06:28:51;;;;;;;10.50;6.57;;;;;;;13.73;40.76;101393.16;5141617;27;20050;-63
2022/04/19 06:31:19;;;;;;;12.27;7.40;;;;;;;13.75;40.65;101392.94;5147085;27;20079;-61
2022/04/19 06:33:51;;;;;;;9.95;6.47;;;;;;;13.75;40.81;101393.75;5142066;27;20058;-61
2022/04/19 06:36:18;;;;;;;12.98;6.20;;;;;;;13.77;40.55;101388.13;5141347;27;20047;-62
2022/04/19 06:38:46;;;;;;;9.77;6.60;;;;;;;13.78;40.94;101389.78;5149320;27;20078;-61
2022/04/19 06:41:15;;;;;;;11.23;6.53;;;;;;;13.79;40.92;101380.59;5149025;27;20081;-61
2022/04/19 06:43:43;;;;;;;9.73;6.47;;;;;;;13.80;40.94;101390.38;5139087;27;20115;-62
2022/04/19 06:46:15;;;;;;;9.23;5.68;;;;;;;13.82;41.05;101391.78;5139955;27;20092;-61
2022/04/19 06:48:43;;;;;;;12.10;6.90;;;;;;;13.82;40.73;101394.47;5146110;27;20074;-61
2022/04/19 06:51:11;;;;;;;9.88;6.05;;;;;;;13.84;41.16;101389.66;5146425;27;20048;-62
2022/04/19 06:53:59;;;;;;;10.35;5.93;;;;;;;13.88;40.91;101388.13;5148748;27;20062;-62
2022/04/19 06:56:28;;;;;;;10.45;6.40;;;;;;;13.90;41.15;101394.13;5127265;27;20044;-62
2022/04/19 06:58:56;;;;;;;10.80;5.72;;;;;;;13.93;41.06;101392.84;5144403;27;20150;-62
2022/04/19 07:01:24;;;;;;;8.90;5.60;;;;;;;13.94;40.79;101394.50;5139368;27;20069;-62
2022/04/19 07:03:52;;;;;;;9.75;6.32;;;;;;;13.98;40.98;101393.78;5139909;27;20043;-62
2022/04/19 07:06:20;;;;;;;9.32;5.55;;;;;;;14.01;40.88;101387.94;5138475;27;20082;-62
2022/04/19 07:08:48;;;;;;;11.52;6.43;;;;;;;14.05;40.87;101392.88;5146491;27;20118;-63
2022/04/19 07:11:16;;;;;;;9.75;5.70;;;;;;;14.05;40.87;101384.75;5133404;27;20071;-63
2022/04/19 07:13:45;;;;;;;9.00;5.75;;;;;;;14.07;41.17;101397.00;5143425;27;20092;-63
2022/04/19 07:16:13;;;;;;;9.02;6.05;;;;;;;14.08;40.73;101393.22;5142971;27;20079;-62
2022/04/19 07:18:40;;;;;;;8.82;5.85;;;;;;;14.10;41.09;101396.53;5142020;27;20230;-63
2022/04/19 07:26:40;;;;;;;9.38;6.53;;;;;;;14.15;40.65;101395.84;5145532;27;20063;-63
2022/04/19 07:29:11;;;;;;;8.77;5.63;;;;;;;14.15;41.20;101403.94;5134741;27;20440;-63
2022/04/19 07:31:39;;;;;;;11.07;6.15;;;;;;;14.18;40.83;101408.88;5146059;27;20054;-63
2022/04/19 07:34:07;;;;;;;12.50;6.45;;;;;;;14.19;40.81;101403.25;5137991;27;20423;-62
2022/04/19 07:36:37;;;;;;;8.60;5.97;;;;;;;14.19;40.88;101405.94;5141903;27;20058;-62
2022/04/19 07:39:05;;;;;;;10.15;6.82;;;;;;;14.21;40.96;101408.41;5144948;27;20055;-62
2022/04/19 07:41:34;;;;;;;9.32;5.53;;;;;;;14.20;40.87;101407.59;5144779;27;20051;-63
2022/04/19 07:44:02;;;;;;;9.73;6.32;;;;;;;14.22;41.04;101408.19;5146137;27;20083;-63
2022/04/19 07:46:31;;;;;;;8.75;5.60;;;;;;;14.25;40.89;101412.31;5145649;27;20073;-62
2022/04/19 07:48:59;;;;;;;9.32;5.93;;;;;;;14.25;40.65;101406.91;5135721;27;20110;-63
2022/04/19 07:51:27;;;;;;;8.60;5.70;;;;;;;14.27;40.95;101410.19;5146069;27;20062;-63
2022/04/19 07:53:55;;;;;;;12.13;6.40;;;;;;;14.26;40.41;101409.38;5146116;27;20043;-63
2022/04/19 07:56:23;;;;;;;10.35;6.28;;;;;;;14.27;40.80;101413.72;5134861;27;20099;-63
2022/04/19 07:58:51;;;;;;;11.30;6.10;;;;;;;14.26;40.69;101409.38;5145715;27;20051;-62
2022/04/19 08:01:20;;;;;;;9.73;6.15;;;;;;;14.27;40.50;101415.59;5150199;27;20102;-63
2022/04/19 08:03:49;;;;;;;10.65;5.50;;;;;;;14.29;40.73;101416.19;5152327;27;20505;-63
2022/04/19 08:06:17;;;;;;;8.85;5.43;;;;;;;14.30;40.90;101415.16;5134370;27;20070;-63
2022/04/19 08:08:44;;;;;;;9.25;5.85;;;;;;;14.31;40.91;101403.28;5143463;27;20082;-63
2022/04/19 08:11:12;;;;;;;8.00;5.20;;;;;;;14.37;41.21;101409.63;5145559;27;20058;-63
2022/04/19 08:13:40;;;;;;;8.57;5.70;;;;;;;14.38;41.25;101406.69;5145498;27;20108;-63
2022/04/19 08:16:08;;;;;;;8.85;5.78;;;;;;;14.40;40.82;101404.56;5153007;27;20043;-63
2022/04/19 08:18:36;;;;;;;7.75;4.82;;;;;;;14.28;40.92;101382.94;5138586;27;20047;-62
2022/04/19 08:21:05;;;;;;;8.85;5.55;;;;;;;14.42;41.06;101396.25;5145549;27;20054;-63
2022/04/19 08:23:32;;;;;;;9.63;5.82;;;;;;;14.43;41.25;101398.72;5144430;27;20109;-63
2022/04/19 08:26:00;;;;;;;8.60;5.22;;;;;;;14.44;41.21;101394.16;5141688;27;20040;-63
2022/04/19 08:28:28;;;;;;;11.57;5.72;;;;;;;14.47;41.31;101401.78;5144053;27;20092;-63
2022/04/19 08:30:56;;;;;;;8.85;5.55;;;;;;;14.49;41.09;101396.97;5141138;27;20079;-62
2022/04/19 08:33:23;;;;;;;11.88;5.25;;;;;;;14.51;41.25;101392.97;5143733;27;20554;-63
2022/04/19 08:35:51;;;;;;;10.18;5.35;;;;;;;14.53;41.49;101390.88;5133606;27;20051;-63
2022/04/19 08:38:20;;;;;;;9.23;5.00;;;;;;;14.57;41.34;101394.75;5142843;27;20051;-63
2022/04/19 08:40:48;;;;;;;9.15;5.22;;;;;;;14.61;41.47;101384.28;5144650;27;20050;-64
2022/04/19 08:43:16;;;;;;;7.70;4.43;;;;;;;14.64;41.31;101394.63;5141801;27;20050;-62
2022/04/19 08:45:46;;;;;;;7.55;4.03;;;;;;;14.59;41.18;101378.28;5144483;27;20070;-62
2022/04/19 08:48:16;;;;;;;12.05;4.38;;;;;;;14.67;41.36;101385.22;5146751;27;20066;-63
2022/04/19 08:50:49;;;;;;;8.80;4.78;;;;;;;14.68;41.14;101387.69;5141279;27;20046;-63
2022/04/19 08:58:48;;;;;;;7.72;4.45;;;;;;;14.73;41.08;101389.69;5139744;27;20067;-62
2022/04/19 09:01:16;;;;;;;8.85;4.07;;;;;;;14.76;41.48;101392.75;5144432;27;20087;-62
2022/04/19 09:03:44;;;;;;;7.90;3.85;;;;;;;14.79;41.11;101388.75;5143997;27;20043;-62
2022/04/19 09:06:12;;;;;;;6.70;4.00;;;;;;;14.82;41.51;101389.09;5133561;27;20057;-63
2022/04/19 09:08:40;;;;;;;7.93;4.60;;;;;;;14.85;41.11;101388.63;5144530;27;20058;-62
2022/04/19 09:11:11;;;;;;;7.15;3.92;;;;;;;14.87;41.15;101389.19;5143662;27;20154;-63
2022/04/19 09:13:38;;;;;;;10.05;4.13;;;;;;;14.91;41.71;101384.13;5140102;27;20245;-62
2022/04/19 09:16:08;;;;;;;8.82;3.17;;;;;;;14.95;41.57;101385.31;5144013;27;20055;-62
2022/04/19 09:18:37;;;;;;;7.35;4.00;;;;;;;14.98;42.06;101379.44;5139179;27;20051;-62
2022/04/19 09:21:06;;;;;;;6.38;3.33;;;;;;;15.00;41.35;101379.19;5145262;27;20047;-62
2022/04/19 09:23:36;;;;;;;8.73;3.13;;;;;;;14.98;41.55;101380.25;5132826;28;20384;-62
2022/04/19 09:26:05;;;;;;;5.55;2.95;;;;;;;15.04;41.14;101374.94;5145198;27;20090;-62
2022/04/19 09:28:35;;;;;;;6.93;3.22;;;;;;;15.05;41.19;101369.28;5151347;27;20051;-63
2022/04/19 09:31:09;;;;;;;7.05;3.80;;;;;;;15.08;42.00;101370.69;5152919;27;20092;-62
2022/04/19 09:33:37;;;;;;;6.43;3.70;;;;;;;15.09;41.53;101370.47;5148191;27;20050;-62
2022/04/19 09:36:07;;;;;;;5.85;2.90;;;;;;;15.11;41.72;101373.75;5138910;27;20107;-61
2022/04/19 09:38:41;;;;;;;4.65;3.00;;;;;;;15.13;41.72;101368.91;5149928;27;20043;-62
2022/04/19 09:41:10;;;;;;;4.85;2.90;;;;;;;15.18;41.79;101370.91;5150420;27;20054;-62
2022/04/19 09:44:06;;;;;;;7.05;3.10;;;;;;;15.19;41.39;101367.97;5140116;27;20541;-62
2022/04/19 09:46:36;;;;;;;6.22;3.58;;;;;;;15.21;41.98;101370.44;5148540;27;20055;-61
2022/04/19 09:49:04;;;;;;;5.03;3.00;;;;;;;15.24;41.49;101361.81;5142373;27;20047;-62
2022/04/19 09:51:33;;;;;;;5.75;3.15;;;;;;;15.31;42.95;101362.50;5147963;27;20067;-62
2022/04/19 09:54:01;;;;;;;5.72;3.08;;;;;;;15.36;41.80;101372.63;5149120;27;20051;-61
2022/04/19 09:56:34;;;;;;;5.38;2.85;;;;;;;15.37;42.13;101364.25;5149111;27;20047;-61
2022/04/19 09:59:20;;;;;;;5.28;3.15;;;;;;;15.44;41.99;101361.41;5146763;27;20039;-62
2022/04/19 10:10:08;;;;;;;5.18;2.55;;;;;;;15.58;41.52;101362.78;5150498;27;20051;-63
2022/04/19 10:12:37;;;;;;;5.30;2.55;;;;;;;15.58;41.64;101360.91;5136681;27;20087;-62
2022/04/19 10:15:07;;;;;;;5.53;2.72;;;;;;;15.59;41.07;101353.59;5149218;27;20051;-63
2022/04/19 10:17:36;;;;;;;6.88;2.60;;;;;;;15.59;41.54;101348.19;5151055;27;20065;-62
2022/04/19 10:20:07;;;;;;;10.93;3.10;;;;;;;15.61;41.20;101349.56;5143488;27;20047;-62
2022/04/19 10:22:35;;;;;;;6.18;3.08;;;;;;;15.68;41.20;101351.28;5137655;27;20047;-62
2022/04/19 10:25:13;;;;;;;4.85;2.80;;;;;;;15.72;41.17;101347.84;5161704;27;20112;-63
2022/04/19 10:27:42;;;;;;;5.53;2.42;;;;;;;15.77;41.22;101347.94;5150855;27;20291;-63
2022/04/19 10:30:18;;;;;;;4.65;2.63;;;;;;;15.79;40.88;101348.53;5147761;27;20074;-62
2022/04/19 10:32:46;;;;;;;;;;;;;;;15.85;41.46;101350.25;5151555;27;20051;-62
2022/04/19 10:35:14;;;;;;;5.60;3.13;;;;;;;15.87;41.22;101353.53;5147024;27;19919;-62
2022/04/19 10:37:44;;;;;;;7.10;3.35;;;;;;;15.87;39.97;101342.69;5149050;27;20089;-61
2022/04/19 10:40:14;;;;;;;6.57;2.58;;;;;;;15.90;40.74;101344.09;5146922;27;20119;-62
2022/04/19 10:42:43;;;;;;;7.63;3.13;;;;;;;15.92;39.87;101336.53;5147706;27;20072;-63
2022/04/19 10:45:25;;;;;;;5.72;3.08;;;;;;;15.94;40.32;101342.53;5133718;27;20051;-61
2022/04/19 10:48:05;;;;;;;5.72;3.40;;;;;;;15.98;40.85;101332.03;5139797;27;20058;-62
2022/04/19 10:50:35;;;;;;;6.18;3.13;;;;;;;16.02;40.91;101331.28;5143920;27;20431;-62
2022/04/19 10:53:04;;;;;;;7.05;2.75;;;;;;;16.09;40.83;101333.84;5146062;27;20133;-62
2022/04/19 10:55:32;;;;;;;7.60;3.78;;;;;;;16.14;40.59;101328.50;5134561;27;20129;-62
2022/04/19 10:58:17;;;;;;;5.40;3.30;;;;;;;16.18;40.58;101325.06;5147813;27;20067;-62
2022/04/19 11:00:52;;;;;;;4.70;2.22;;;;;;;16.26;41.84;101321.91;5143144;27;20050;-62
2022/04/19 11:03:50;;;;;;;5.45;3.28;;;;;;;16.34;41.90;101317.97;5133233;27;20062;-62
2022/04/19 11:06:37;;;;;;;3.83;2.35;;;;;;;16.40;41.79;101310.72;5146051;27;20079;-62
2022/04/19 11:09:16;;;;;;;6.03;3.17;;;;;;;16.46;41.00;101315.97;5146729;27;20043;-63
2022/04/19 11:11:46;;;;;;;5.15;2.78;;;;;;;16.48;40.51;101307.59;5138542;27;20075;-63
2022/04/19 11:14:45;;;;;;;5.45;2.45;;;;;;;16.49;39.55;101315.47;5147118;27;20051;-63
2022/04/19 11:17:29;;;;;;;5.55;3.40;;;;;;;16.40;39.09;101300.69;5144469;27;20077;-64
2022/04/19 11:20:10;;;;;;;8.05;3.65;;;;;;;16.44;38.53;101303.72;5126811;27;20036;-62
2022/04/19 11:22:47;;;;;;;5.03;2.60;;;;;;;16.46;39.40;101305.13;5142080;27;20089;-62
2022/04/19 11:25:15;;;;;;;4.82;2.70;;;;;;;16.52;40.43;101308.72;5146104;27;20110;-62
2022/04/19 11:28:17;;;;;;;5.20;3.03;;;;;;;16.55;39.96;101303.63;5144733;27;20055;-62
2022/04/19 11:30:46;;;;;;;7.78;3.50;;;;;;;16.59;39.05;101298.53;5150571;27;20078;-63
2022/04/19 11:33:26;;;;;;;6.32;3.47;;;;;;;16.60;38.88;101292.03;5143824;27;20075;-63
2022/04/19 11:35:59;;;;;;;6.55;3.10;;;;;;;16.64;38.68;101287.72;5134039;27;20055;-62
2022/04/19 11:38:28;;;;;;;4.80;2.65;;;;;;;16.71;39.95;101287.59;5144875;27;20067;-62
2022/04/19 11:46:46;;;;;;;5.10;2.63;;;;;;;16.93;39.40;101293.84;5145545;27;20051;-61
2022/04/19 11:49:38;;;;;;;6.57;3.00;;;;;;;17.00;39.58;101291.75;5135393;27;20047;-61
2022/04/19 11:52:11;;;;;;;7.15;3.33;;;;;;;17.01;39.07;101295.28;5142807;27;20046;-62
2022/04/19 11:54:39;;;;;;;6.78;3.35;;;;;;;17.02;38.45;101292.31;5146021;27;20043;-62
2022/04/19 11:57:10;;;;;;;5.95;3.55;;;;;;;16.99;37.95;101289.28;5145183;27;20074;-62
2022/04/19 11:59:39;;;;;;;6.03;3.17;;;;;;;17.03;38.35;101307.53;5145103;27;20043;-62
2022/04/19 12:02:14;;;;;;;8.32;3.47;;;;;;;17.10;39.83;101299.19;5143498;27;20073;-62
2022/04/19 12:04:51;;;;;;;6.65;3.92;;;;;;;17.15;38.87;101296.53;5145306;27;20054;-62
2022/04/19 12:07:19;;;;;;;7.22;3.63;;;;;;;17.17;38.09;101297.09;5145908;27;20051;-62
2022/04/19 12:09:47;;;;;;;6.60;3.55;;;;;;;17.17;37.34;101292.50;5144842;27;20067;-62
2022/04/19 12:12:15;;;;;;;8.13;3.22;;;;;;;17.16;37.15;101277.28;5151424;27;20046;-61